Taiping Airport
ZYHB : now visible

Airfield :











YOU CAN JOIN US ON...

 
LOGIN :

Register | Disclaimer

   EN    FR    IT 

 









Legend :    VFR   Marginal VFR   IFR   Intensive IFR   Very Intensive IFR
Visi :
Ceiling :
>= 8 km
>= 3000ft
5 to 8 km
1000 to 3000 ft
1500m to 5 km
500 to 1000 ft
800 to 1500m
200 to 500 ft
< 800m
< 200 ft
Symbols :   Thunderstorms  Fog  Heavy snow  Heavy precipitations  Wind > 20 kt






- Airport Elevation : 457 ft
- IATA code : HRB


ZYHB - Taiping

CURRENT METAR :
  • 260800Z 16004MPS 2800 HZ NSC M12/M16 Q1031 NOSIG

EXPIRED METARs :
  • 260700Z 17005MPS 3500 HZ NSC M10/M16 Q1032 BECMG TL0830 2500
  • 260600Z 18004MPS 3500 HZ NSC M10/M16 Q1032 NOSIG

TAF TAF ZYHB
Valid from the 26 at 06:00 until the 27 at 06:00 UTC


260307Z 2606/2706 18003MPS 3000 FU FEW030 TXM08/2606Z TNM21/2621Z
TEMPO 2608/2614 1000
BECMG 2616/2618 1500



MET'MAP, your aeronautical weather chart ! - Copyright ORBIFLY December 2007 - Disclaimer

ORBIFLY MET'MAP TEAM :

Programming & Development : Alexandra Zaïnal
Concept & original design : Baudouin d'Aumeries
Assistance for programming : Marc-Olivier Méhu
Technical & hardware support : Manuel Goepfert

Contact : metmap@orbifly.com




SOURCES & CREDITS :

   NOAA       Earth
Advisory